Time;durP1;ratioP1;P1;durP2;ratioP2;P2;SDS_P1;SDS_P2;PMS_P1;PMS_P2;Temp;Humidity;BMP_temperature;BMP_pressure;BME280_temperature;BME280_humidity;BME280_pressure;Samples;Min_cycle;Max_cycle;Signal;HPM_P1;HPM_P2
2022/05/14 00:01:10;;;;;;;2.00;0.70;;;;;;;;;;4979880;28;20141;-80
2022/05/14 00:03:38;;;;;;;2.55;0.50;;;;;;;;;;5011993;28;20091;-80
2022/05/14 00:06:07;;;;;;;2.10;0.60;;;;;;;;;;5012039;28;20054;-80
2022/05/14 00:08:34;;;;;;;4.35;0.60;;;;;;;;;;5011600;28;20532;-80
2022/05/14 00:13:50;;;;;;;2.40;0.77;;;;;;;;;;5009335;28;20050;-82
2022/05/14 00:16:17;;;;;;;2.65;0.70;;;;;;;;;;5012527;28;20038;-81
2022/05/14 00:18:46;;;;;;;3.53;0.57;;;;;;;;;;5016263;28;20052;-81
2022/05/14 00:21:15;;;;;;;2.28;0.60;;;;;;;;;;5009509;28;20100;-81
2022/05/14 00:23:42;;;;;;;3.00;0.75;;;;;;;;;;5008924;28;20144;-80
2022/05/14 00:26:09;;;;;;;3.78;0.80;;;;;;;;;;4993577;28;20042;-82
2022/05/14 00:28:37;;;;;;;2.90;0.60;;;;;;;;;;4993807;28;20069;-80
2022/05/14 00:31:04;;;;;;;4.13;0.68;;;;;;;;;;5011630;28;20112;-80
2022/05/14 00:33:32;;;;;;;4.35;0.50;;;;;;;;;;4995206;28;20045;-83
2022/05/14 00:36:00;;;;;;;3.25;0.60;;;;;;;;;;4992082;28;20802;-86
2022/05/14 00:38:28;;;;;;;3.22;0.70;;;;;;;;;;4995105;28;20042;-79
2022/05/14 00:41:00;;;;;;;3.95;0.70;;;;;;;;;;5010790;28;20045;-80
2022/05/14 00:43:28;;;;;;;3.53;1.20;;;;;;;;;;4994789;28;20363;-80
2022/05/14 00:46:11;;;;;;;1.00;0.40;;;;;;;;;;4994843;28;20077;-80
2022/05/14 00:48:40;;;;;;;2.03;0.50;;;;;;;;;;5010658;28;20123;-79
2022/05/14 00:51:08;;;;;;;2.92;0.50;;;;;;;;;;4994925;28;20053;-78
2022/05/14 00:53:42;;;;;;;1.95;0.50;;;;;;;;;;5010750;28;20119;-78
2022/05/14 00:56:12;;;;;;;1.88;0.50;;;;;;;;;;5012442;28;20046;-79
2022/05/14 00:58:50;;;;;;;2.72;0.52;;;;;;;;;;5027563;28;20050;-78
2022/05/14 01:01:17;;;;;;;1.52;0.60;;;;;;;;;;4991288;28;20133;-78
2022/05/14 01:03:44;;;;;;;2.13;0.57;;;;;;;;;;4993589;28;20498;-78
2022/05/14 01:06:14;;;;;;;2.22;0.50;;;;;;;;;;4994771;28;20406;-78
2022/05/14 01:08:42;;;;;;;2.40;0.50;;;;;;;;;;5027616;28;20054;-78
2022/05/14 01:11:12;;;;;;;1.92;1.00;;;;;;;;;;4994737;28;20133;-79
2022/05/14 01:13:40;;;;;;;1.45;0.50;;;;;;;;;;5010358;28;20042;-80
2022/05/14 01:16:08;;;;;;;1.15;0.28;;;;;;;;;;4995056;28;20100;-82
2022/05/14 01:18:37;;;;;;;1.38;0.38;;;;;;;;;;4994805;28;20042;-81
2022/05/14 01:21:11;;;;;;;1.77;0.50;;;;;;;;;;5010342;28;20391;-81
2022/05/14 01:26:27;;;;;;;2.55;0.30;;;;;;;;;;4994270;28;20469;-80
2022/05/14 01:26:28;;;;;;;1.77;0.30;;;;;;;;;;5019904;28;20038;-80
2022/05/14 01:29:04;;;;;;;3.25;0.50;;;;;;;;;;5013079;28;20038;-80
2022/05/14 01:31:32;;;;;;;1.00;0.30;;;;;;;;;;5013862;28;20050;-81
2022/05/14 01:34:00;;;;;;;1.92;0.60;;;;;;;;;;4998470;28;20042;-80
2022/05/14 01:36:28;;;;;;;4.03;0.63;;;;;;;;;;5011001;28;20053;-81
2022/05/14 01:38:56;;;;;;;1.45;0.60;;;;;;;;;;5012368;28;20061;-80
2022/05/14 01:41:24;;;;;;;2.92;0.57;;;;;;;;;;4998229;28;20100;-80
2022/05/14 01:43:52;;;;;;;3.08;0.70;;;;;;;;;;5014687;28;20100;-80
2022/05/14 01:46:19;;;;;;;3.75;0.73;;;;;;;;;;5013406;28;20418;-80
2022/05/14 01:48:48;;;;;;;4.75;0.85;;;;;;;;;;4998105;28;20060;-79
2022/05/14 01:51:16;;;;;;;4.45;0.90;;;;;;;;;;5014044;28;20056;-79
2022/05/14 01:53:44;;;;;;;3.88;0.90;;;;;;;;;;5013833;28;20069;-78
2022/05/14 01:56:12;;;;;;;2.38;0.40;;;;;;;;;;5011243;28;20038;-79
2022/05/14 01:58:40;;;;;;;2.97;1.10;;;;;;;;;;5014186;28;20046;-79
2022/05/14 02:01:21;;;;;;;5.10;1.10;;;;;;;;;;5008585;28;20050;-78
2022/05/14 02:03:54;;;;;;;3.10;0.70;;;;;;;;;;5014349;28;20048;-78
2022/05/14 02:06:23;;;;;;;3.03;0.90;;;;;;;;;;5014026;28;20406;-78
2022/05/14 02:08:51;;;;;;;4.00;0.88;;;;;;;;;;4997848;28;20038;-79
2022/05/14 02:11:21;;;;;;;2.53;0.60;;;;;;;;;;5011517;28;20074;-79
2022/05/14 02:13:53;;;;;;;2.83;0.70;;;;;;;;;;4997266;28;20061;-78
2022/05/14 02:16:21;;;;;;;3.92;0.90;;;;;;;;;;4997243;28;20663;-78
2022/05/14 02:18:49;;;;;;;2.47;0.52;;;;;;;;;;5010347;28;20085;-78
2022/05/14 02:21:20;;;;;;;5.43;0.80;;;;;;;;;;5013485;28;20054;-78
2022/05/14 02:23:51;;;;;;;1.87;0.50;;;;;;;;;;5013837;28;20824;-79
2022/05/14 02:26:19;;;;;;;1.58;0.60;;;;;;;;;;4994474;28;20054;-79
2022/05/14 02:28:46;;;;;;;3.40;0.73;;;;;;;;;;4997322;28;20049;-79
2022/05/14 02:31:17;;;;;;;1.45;0.45;;;;;;;;;;4978626;28;20042;-79
2022/05/14 02:33:45;;;;;;;2.85;0.50;;;;;;;;;;4998113;28;20057;-79
2022/05/14 02:36:12;;;;;;;2.42;0.60;;;;;;;;;;4994332;28;20050;-78
2022/05/14 02:38:40;;;;;;;4.38;0.63;;;;;;;;;;5007272;28;20479;-78
2022/05/14 02:41:08;;;;;;;2.38;0.63;;;;;;;;;;5015807;28;20045;-79
2022/05/14 02:43:36;;;;;;;1.63;0.70;;;;;;;;;;5012525;28;20041;-79
2022/05/14 02:46:04;;;;;;;3.28;0.70;;;;;;;;;;5045988;28;20532;-79
2022/05/14 02:48:32;;;;;;;1.50;0.47;;;;;;;;;;5012870;28;20054;-78
2022/05/14 02:51:00;;;;;;;3.92;0.68;;;;;;;;;;5012252;28;20399;-78
2022/05/14 02:53:28;;;;;;;2.75;0.73;;;;;;;;;;4996338;28;20130;-78
2022/05/14 02:55:56;;;;;;;2.70;0.73;;;;;;;;;;4996433;28;20131;-78
2022/05/14 03:01:11;;;;;;;2.50;0.90;;;;;;;;;;5012157;28;20053;-79
2022/05/14 03:03:42;;;;;;;2.45;0.82;;;;;;;;;;4994624;28;20069;-78
2022/05/14 03:06:09;;;;;;;3.85;0.90;;;;;;;;;;4996299;28;20050;-78
2022/05/14 03:08:37;;;;;;;1.48;0.52;;;;;;;;;;5008681;28;20125;-78
2022/05/14 03:11:05;;;;;;;2.63;0.60;;;;;;;;;;4995617;28;20049;-79
2022/05/14 03:13:33;;;;;;;2.15;0.70;;;;;;;;;;4996549;28;20490;-78
2022/05/14 03:16:00;;;;;;;3.45;0.40;;;;;;;;;;4980639;28;20042;-78
2022/05/14 03:18:28;;;;;;;4.63;0.60;;;;;;;;;;4993034;28;20141;-78
2022/05/14 03:20:56;;;;;;;2.38;0.70;;;;;;;;;;4990060;28;20073;-78
2022/05/14 03:23:24;;;;;;;2.85;0.70;;;;;;;;;;4996235;28;20049;-79
2022/05/14 03:25:51;;;;;;;2.13;0.73;;;;;;;;;;5025076;28;20161;-78
2022/05/14 03:28:22;;;;;;;2.60;0.80;;;;;;;;;;5012689;28;20046;-78
2022/05/14 03:30:50;;;;;;;1.48;0.55;;;;;;;;;;5012334;28;20054;-79
2022/05/14 03:33:17;;;;;;;2.65;0.68;;;;;;;;;;5029288;28;20133;-79
2022/05/14 03:35:45;;;;;;;3.22;0.47;;;;;;;;;;4995886;28;20136;-79
2022/05/14 03:38:13;;;;;;;3.58;0.52;;;;;;;;;;5011897;28;20494;-79
2022/05/14 03:40:40;;;;;;;2.60;0.60;;;;;;;;;;4996043;28;20049;-79
2022/05/14 03:43:08;;;;;;;3.65;0.60;;;;;;;;;;5011397;28;20045;-79
2022/05/14 03:45:35;;;;;;;1.55;0.70;;;;;;;;;;5011762;28;20042;-79
2022/05/14 03:48:03;;;;;;;0.90;0.40;;;;;;;;;;5012918;28;20046;-78
2022/05/14 03:50:31;;;;;;;2.30;0.65;;;;;;;;;;4990044;28;20370;-79
2022/05/14 03:52:58;;;;;;;3.33;0.60;;;;;;;;;;4993947;28;20133;-78
2022/05/14 03:55:27;;;;;;;3.95;0.80;;;;;;;;;;4999530;28;20048;-78
2022/05/14 03:57:54;;;;;;;1.25;0.47;;;;;;;;;;4985736;28;20103;-78
2022/05/14 04:00:22;;;;;;;2.35;0.65;;;;;;;;;;4988868;28;20038;-78
2022/05/14 04:02:49;;;;;;;2.08;0.57;;;;;;;;;;5007058;28;20080;-78
2022/05/14 04:05:17;;;;;;;2.67;0.52;;;;;;;;;;4998640;28;20383;-79
2022/05/14 04:07:47;;;;;;;2.42;0.50;;;;;;;;;;5014513;28;20049;-78
2022/05/14 04:10:16;;;;;;;4.30;0.82;;;;;;;;;;5015199;28;20052;-78
2022/05/14 04:12:44;;;;;;;1.45;0.40;;;;;;;;;;5014304;28;20563;-78
2022/05/14 04:15:13;;;;;;;1.15;0.30;;;;;;;;;;4998283;28;20041;-78
2022/05/14 04:17:41;;;;;;;1.40;0.50;;;;;;;;;;5015357;28;20057;-78
2022/05/14 04:20:09;;;;;;;3.33;0.40;;;;;;;;;;4998910;28;20141;-78
2022/05/14 04:22:37;;;;;;;2.03;0.65;;;;;;;;;;4983085;28;20045;-78
2022/05/14 04:25:05;;;;;;;2.60;0.90;;;;;;;;;;5014986;28;20041;-79
2022/05/14 04:27:33;;;;;;;1.40;0.47;;;;;;;;;;4982774;28;20050;-79
2022/05/14 04:30:01;;;;;;;1.70;0.50;;;;;;;;;;5031523;28;20069;-79
2022/05/14 04:32:28;;;;;;;1.88;0.73;;;;;;;;;;5016259;28;20056;-79
2022/05/14 04:34:57;;;;;;;3.25;0.60;;;;;;;;;;5017164;28;20045;-78
2022/05/14 04:37:25;;;;;;;1.77;0.50;;;;;;;;;;5004145;28;20346;-78
2022/05/14 04:39:53;;;;;;;2.10;0.52;;;;;;;;;;5016611;28;20151;-78
2022/05/14 04:42:21;;;;;;;2.88;0.60;;;;;;;;;;4999703;28;20041;-78
2022/05/14 04:44:48;;;;;;;1.58;0.55;;;;;;;;;;4995215;28;20046;-78
2022/05/14 04:47:16;;;;;;;3.08;0.80;;;;;;;;;;4985870;28;20045;-79
2022/05/14 04:49:45;;;;;;;2.55;0.65;;;;;;;;;;4991520;28;20497;-78
2022/05/14 04:52:14;;;;;;;1.42;0.50;;;;;;;;;;5011453;28;20046;-79
2022/05/14 04:54:42;;;;;;;1.92;0.60;;;;;;;;;;4995355;28;20049;-79
2022/05/14 04:57:10;;;;;;;3.10;0.60;;;;;;;;;;4995348;28;21005;-79
2022/05/14 04:59:38;;;;;;;2.30;1.00;;;;;;;;;;5011430;28;20053;-79
2022/05/14 05:04:57;;;;;;;2.42;1.00;;;;;;;;;;4993644;28;20124;-79
2022/05/14 05:07:24;;;;;;;4.95;1.60;;;;;;;;;;4978978;28;20046;-79
2022/05/14 05:09:53;;;;;;;4.75;0.90;;;;;;;;;;4994980;28;20047;-79
2022/05/14 05:12:21;;;;;;;3.47;1.23;;;;;;;;;;5011142;28;20046;-78
2022/05/14 05:14:54;;;;;;;6.63;1.40;;;;;;;;;;5011005;28;20042;-78
2022/05/14 05:17:21;;;;;;;3.65;1.38;;;;;;;;;;4977953;28;20445;-79
2022/05/14 05:19:49;;;;;;;4.10;1.50;;;;;;;;;;5010847;28;20065;-79
2022/05/14 05:22:16;;;;;;;6.43;1.73;;;;;;;;;;4991030;28;20085;-78
2022/05/14 05:24:44;;;;;;;3.65;1.23;;;;;;;;;;4991446;28;20054;-78
2022/05/14 05:27:11;;;;;;;3.78;1.08;;;;;;;;;;4994714;28;20108;-79
2022/05/14 05:29:39;;;;;;;2.80;1.00;;;;;;;;;;5010912;28;20125;-79
2022/05/14 05:32:06;;;;;;;4.15;1.13;;;;;;;;;;4991327;28;20088;-79
2022/05/14 05:34:34;;;;;;;3.50;1.23;;;;;;;;;;4994562;28;20066;-78
2022/05/14 05:37:01;;;;;;;3.30;1.35;;;;;;;;;;5010684;28;20499;-79
2022/05/14 05:39:29;;;;;;;1.88;1.00;;;;;;;;;;5010736;28;20046;-80
2022/05/14 05:41:58;;;;;;;1.58;0.80;;;;;;;;;;5011661;28;20120;-80
2022/05/14 05:44:26;;;;;;;4.28;0.90;;;;;;;;;;4993996;28;20048;-80
2022/05/14 05:46:54;;;;;;;3.55;1.02;;;;;;;;;;4993801;28;20229;-80
2022/05/14 05:49:22;;;;;;;4.40;1.40;;;;;;;;;;5010359;28;20046;-80
2022/05/14 05:51:49;;;;;;;2.20;1.15;;;;;;;;;;4974943;28;20070;-80
2022/05/14 05:57:03;;;;;;;3.92;1.50;;;;;;;;;;5010043;28;20050;-80
2022/05/14 05:59:32;;;;;;;6.55;1.30;;;;;;;;;;4994204;28;20049;-80
2022/05/14 06:02:00;;;;;;;5.38;1.90;;;;;;;;;;4994270;28;20423;-80
2022/05/14 06:04:27;;;;;;;4.35;1.80;;;;;;;;;;4993266;28;20053;-80
2022/05/14 06:06:55;;;;;;;5.65;1.23;;;;;;;;;;4994216;28;20041;-80
2022/05/14 06:09:24;;;;;;;4.45;1.35;;;;;;;;;;5010329;28;20042;-80
2022/05/14 06:11:52;;;;;;;7.88;1.70;;;;;;;;;;5010349;28;20465;-80
2022/05/14 06:14:19;;;;;;;6.50;1.85;;;;;;;;;;5011240;28;20045;-80
2022/05/14 06:16:46;;;;;;;4.97;1.70;;;;;;;;;;4997531;28;20037;-80
2022/05/14 06:19:15;;;;;;;5.68;2.05;;;;;;;;;;4997616;28;20140;-80
2022/05/14 06:21:42;;;;;;;4.28;1.73;;;;;;;;;;4997099;28;20046;-80
2022/05/14 06:24:10;;;;;;;6.43;2.03;;;;;;;;;;4997554;28;20046;-80
2022/05/14 06:26:38;;;;;;;6.03;1.98;;;;;;;;;;5014582;28;20088;-80
2022/05/14 06:29:06;;;;;;;5.53;2.25;;;;;;;;;;5014518;28;20037;-78
2022/05/14 06:31:36;;;;;;;5.03;2.08;;;;;;;;;;5013562;28;20525;-79
2022/05/14 06:34:03;;;;;;;5.68;2.08;;;;;;;;;;5013814;28;20119;-79
2022/05/14 06:36:31;;;;;;;7.00;1.80;;;;;;;;;;4997205;28;20469;-79
2022/05/14 06:38:58;;;;;;;4.55;1.95;;;;;;;;;;4996667;28;20108;-79
2022/05/14 06:41:25;;;;;;;7.30;1.98;;;;;;;;;;4993880;28;20140;-80
2022/05/14 06:43:53;;;;;;;6.65;2.22;;;;;;;;;;4995372;28;20041;-80
2022/05/14 06:46:20;;;;;;;8.40;3.15;;;;;;;;;;4981245;28;20831;-80
2022/05/14 06:48:48;;;;;;;5.88;2.28;;;;;;;;;;5012970;28;20054;-80
2022/05/14 06:51:18;;;;;;;5.03;1.52;;;;;;;;;;4996390;28;20046;-81
2022/05/14 06:53:49;;;;;;;6.00;2.33;;;;;;;;;;5010956;28;20085;-80
2022/05/14 06:56:17;;;;;;;6.90;2.35;;;;;;;;;;5013404;28;20037;-80
2022/05/14 06:58:48;;;;;;;5.38;2.13;;;;;;;;;;4997459;28;20215;-80
2022/05/14 07:01:17;;;;;;;7.55;2.55;;;;;;;;;;5009725;28;20046;-81
2022/05/14 07:06:43;;;;;;;7.13;2.13;;;;;;;;;;5013919;28;20477;-84
2022/05/14 07:09:26;;;;;;;7.97;2.28;;;;;;;;;;4999155;28;20073;-86
2022/05/14 07:11:56;;;;;;;6.47;2.63;;;;;;;;;;5013098;28;20133;-82
2022/05/14 07:14:26;;;;;;;6.40;2.63;;;;;;;;;;5029477;28;20152;-82
2022/05/14 07:16:54;;;;;;;6.47;2.75;;;;;;;;;;5012974;28;20112;-81
2022/05/14 07:19:22;;;;;;;7.15;2.35;;;;;;;;;;4993857;28;20038;-85
2022/05/14 07:21:50;;;;;;;9.15;3.17;;;;;;;;;;5013332;28;20095;-84
2022/05/14 07:24:19;;;;;;;7.10;2.55;;;;;;;;;;5013278;28;20450;-83
2022/05/14 07:26:49;;;;;;;5.45;2.65;;;;;;;;;;5012153;28;20466;-83
2022/05/14 07:29:18;;;;;;;7.35;2.30;;;;;;;;;;4992184;28;20100;-85
2022/05/14 07:31:45;;;;;;;5.35;2.45;;;;;;;;;;4999736;28;20156;-84
2022/05/14 07:34:13;;;;;;;9.05;2.70;;;;;;;;;;4997290;28;20069;-85
2022/05/14 07:36:47;;;;;;;5.00;2.42;;;;;;;;;;4993831;28;20058;-86
2022/05/14 07:39:14;;;;;;;6.82;2.42;;;;;;;;;;5012935;28;20080;-86
2022/05/14 07:41:45;;;;;;;8.00;3.08;;;;;;;;;;4996580;28;20532;-82
2022/05/14 07:44:14;;;;;;;5.82;2.72;;;;;;;;;;5012352;28;20049;-83
2022/05/14 07:46:45;;;;;;;7.03;2.55;;;;;;;;;;5012285;28;20548;-82
2022/05/14 07:49:13;;;;;;;7.72;2.92;;;;;;;;;;5011944;28;20046;-82
2022/05/14 07:51:41;;;;;;;9.35;3.00;;;;;;;;;;4980390;28;20050;-81
2022/05/14 07:54:10;;;;;;;7.45;2.47;;;;;;;;;;4984758;28;20443;-80
2022/05/14 07:56:38;;;;;;;6.45;2.35;;;;;;;;;;4995434;28;20782;-80
2022/05/14 07:59:06;;;;;;;6.80;2.70;;;;;;;;;;5011609;28;20037;-80
2022/05/14 08:01:33;;;;;;;7.85;2.40;;;;;;;;;;5011571;28;20065;-80
2022/05/14 08:04:01;;;;;;;5.53;2.25;;;;;;;;;;4995449;28;20469;-79
2022/05/14 08:06:28;;;;;;;6.68;2.40;;;;;;;;;;5012049;28;20096;-80
2022/05/14 08:08:57;;;;;;;10.07;3.47;;;;;;;;;;5011868;28;20042;-79
2022/05/14 08:11:26;;;;;;;7.20;2.45;;;;;;;;;;5011743;28;20487;-79
2022/05/14 08:13:54;;;;;;;9.38;2.40;;;;;;;;;;5012211;28;20045;-79
2022/05/14 08:16:22;;;;;;;8.50;2.67;;;;;;;;;;5011993;28;20053;-80
2022/05/14 08:18:50;;;;;;;7.25;2.35;;;;;;;;;;5011821;28;20049;-83
2022/05/14 08:26:51;;;;;;;6.55;2.03;;;;;;;;;;5004456;28;20061;-79
2022/05/14 08:29:19;;;;;;;6.63;1.98;;;;;;;;;;4994337;28;20085;-79
2022/05/14 08:31:46;;;;;;;7.45;2.25;;;;;;;;;;4994776;28;20041;-79
2022/05/14 08:34:17;;;;;;;7.13;1.95;;;;;;;;;;5008816;28;20035;-79
2022/05/14 08:36:45;;;;;;;4.88;1.85;;;;;;;;;;4989606;28;20046;-79
2022/05/14 08:39:12;;;;;;;4.50;1.90;;;;;;;;;;4982192;28;20049;-80
2022/05/14 08:41:42;;;;;;;3.72;1.10;;;;;;;;;;4995428;28;20132;-81
2022/05/14 08:44:12;;;;;;;7.95;1.63;;;;;;;;;;5011017;28;20184;-83
2022/05/14 08:46:40;;;;;;;6.50;1.67;;;;;;;;;;5012137;28;20050;-86
2022/05/14 08:49:16;;;;;;;3.30;1.50;;;;;;;;;;5011335;28;20049;-87
2022/05/14 08:51:46;;;;;;;7.15;1.50;;;;;;;;;;5011522;28;20069;-80
2022/05/14 08:54:13;;;;;;;6.90;1.65;;;;;;;;;;5010469;28;20092;-83
2022/05/14 08:56:44;;;;;;;6.28;1.30;;;;;;;;;;4979285;28;20073;-83
2022/05/14 08:59:17;;;;;;;4.38;1.00;;;;;;;;;;5011199;28;20058;-83
2022/05/14 09:01:48;;;;;;;8.27;1.35;;;;;;;;;;5011545;28;20054;-86
2022/05/14 09:04:17;;;;;;;6.32;1.20;;;;;;;;;;5009150;28;20100;-84
2022/05/14 09:06:50;;;;;;;7.03;1.43;;;;;;;;;;5011604;28;20050;-87
2022/05/14 09:09:18;;;;;;;5.35;1.40;;;;;;;;;;5011296;28;20050;-85
2022/05/14 09:11:52;;;;;;;6.03;0.95;;;;;;;;;;4995602;28;20069;-83
2022/05/14 09:14:21;;;;;;;5.07;1.13;;;;;;;;;;5011017;28;20054;-85
2022/05/14 09:16:59;;;;;;;4.40;0.93;;;;;;;;;;5011734;28;20096;-89
2022/05/14 09:19:31;;;;;;;2.33;0.90;;;;;;;;;;5011278;28;20049;-86
2022/05/14 09:22:02;;;;;;;2.88;0.68;;;;;;;;;;5011763;28;20041;-86
2022/05/14 09:24:30;;;;;;;3.72;0.68;;;;;;;;;;5010439;28;20046;-84
2022/05/14 09:27:10;;;;;;;4.50;1.00;;;;;;;;;;4994835;28;20088;-85
2022/05/14 09:29:39;;;;;;;3.90;1.10;;;;;;;;;;5004212;28;20042;-87
2022/05/14 09:32:13;;;;;;;3.78;0.95;;;;;;;;;;4994222;28;20046;-87
2022/05/14 09:34:42;;;;;;;2.03;0.60;;;;;;;;;;4991902;28;20383;-87
2022/05/14 09:37:28;;;;;;;5.85;1.20;;;;;;;;;;4998972;28;20517;-86
2022/05/14 09:39:59;;;;;;;5.72;1.27;;;;;;;;;;4997668;28;20125;-85
2022/05/14 09:42:34;;;;;;;4.37;1.20;;;;;;;;;;5000115;28;20084;-87
2022/05/14 09:45:01;;;;;;;6.05;1.30;;;;;;;;;;5018033;28;20061;-87
2022/05/14 09:47:34;;;;;;;;;;;;;;;;;;5030373;28;20494;-84
2022/05/14 09:50:04;;;;;;;5.63;1.25;;;;;;;;;;4997180;28;19926;-85
2022/05/14 09:52:35;;;;;;;5.35;1.30;;;;;;;;;;4999450;28;20231;-86
2022/05/14 09:55:08;;;;;;;4.15;1.25;;;;;;;;;;5009975;28;20454;-84
2022/05/14 09:57:38;;;;;;;7.47;1.40;;;;;;;;;;5000133;28;20117;-86
2022/05/14 10:00:08;;;;;;;6.65;1.33;;;;;;;;;;5010047;28;20046;-85
2022/05/14 10:02:57;;;;;;;5.13;1.35;;;;;;;;;;5011180;28;20046;-77
2022/05/14 10:05:43;;;;;;;3.20;1.23;;;;;;;;;;5022378;28;20052;-77
2022/05/14 10:08:13;;;;;;;4.35;1.50;;;;;;;;;;4991431;28;20097;-80
2022/05/14 10:10:50;;;;;;;3.45;0.90;;;;;;;;;;4996726;28;20042;-78
2022/05/14 10:13:26;;;;;;;4.72;1.05;;;;;;;;;;5007487;28;20108;-84
2022/05/14 10:16:15;;;;;;;4.50;1.10;;;;;;;;;;5015604;28;20100;-84
2022/05/14 10:18:46;;;;;;;4.93;1.10;;;;;;;;;;5005059;28;20076;-86
2022/05/14 10:21:13;;;;;;;3.45;0.90;;;;;;;;;;5014361;28;20045;-86
2022/05/14 10:26:45;;;;;;;4.97;0.88;;;;;;;;;;5012163;28;20100;-87
2022/05/14 10:29:15;;;;;;;3.47;0.65;;;;;;;;;;5011974;28;20046;-87
2022/05/14 10:32:01;;;;;;;5.43;1.38;;;;;;;;;;5014690;28;20049;-87
2022/05/14 10:34:37;;;;;;;3.60;0.90;;;;;;;;;;5014646;28;20052;-77
2022/05/14 10:37:11;;;;;;;4.55;1.10;;;;;;;;;;4997029;28;20038;-77
2022/05/14 10:39:45;;;;;;;3.72;0.90;;;;;;;;;;5013211;28;20379;-77
2022/05/14 10:42:45;;;;;;;6.43;1.35;;;;;;;;;;4984005;28;20049;-76
2022/05/14 10:45:19;;;;;;;6.25;1.55;;;;;;;;;;4963542;28;20045;-87
2022/05/14 10:47:51;;;;;;;5.15;1.63;;;;;;;;;;5010817;28;20042;-76
2022/05/14 10:50:20;;;;;;;4.60;1.20;;;;;;;;;;5011374;28;20058;-77
2022/05/14 10:52:48;;;;;;;5.93;1.70;;;;;;;;;;5012190;28;20069;-76
2022/05/14 10:55:17;;;;;;;4.32;1.10;;;;;;;;;;5013181;28;20054;-77
2022/05/14 10:57:47;;;;;;;5.03;0.90;;;;;;;;;;5012397;28;20037;-77
2022/05/14 11:00:24;;;;;;;5.53;1.10;;;;;;;;;;4996530;28;20104;-77
2022/05/14 11:03:05;;;;;;;5.28;1.27;;;;;;;;;;5011911;28;20517;-79
2022/05/14 11:05:48;;;;;;;8.35;1.55;;;;;;;;;;5012335;28;20050;-79
2022/05/14 11:08:27;;;;;;;7.32;1.55;;;;;;;;;;5008670;28;20507;-81
2022/05/14 11:11:21;;;;;;;4.90;1.20;;;;;;;;;;5012678;28;20104;-79
2022/05/14 11:14:06;;;;;;;7.30;1.70;;;;;;;;;;5011821;28;20091;-81
2022/05/14 11:16:46;;;;;;;6.78;1.20;;;;;;;;;;5013920;28;20053;-80
2022/05/14 11:19:26;;;;;;;3.70;1.30;;;;;;;;;;5013740;28;20050;-79
2022/05/14 11:21:55;;;;;;;4.50;1.20;;;;;;;;;;5013233;28;20030;-81
2022/05/14 11:24:36;;;;;;;6.65;1.40;;;;;;;;;;5013130;28;20092;-82
2022/05/14 11:27:05;;;;;;;5.22;1.20;;;;;;;;;;5011563;28;20173;-80
2022/05/14 11:29:49;;;;;;;4.57;1.10;;;;;;;;;;4991289;28;20078;-81
2022/05/14 11:32:18;;;;;;;4.00;0.90;;;;;;;;;;5011428;28;20042;-80
2022/05/14 11:34:57;;;;;;;6.10;1.42;;;;;;;;;;5013309;28;20119;-80
2022/05/14 11:37:32;;;;;;;3.13;1.23;;;;;;;;;;5013286;28;20483;-81
2022/05/14 11:40:27;;;;;;;4.15;1.02;;;;;;;;;;5012833;28;20087;-81
2022/05/14 11:43:06;;;;;;;5.70;1.27;;;;;;;;;;5037540;28;20058;-81
2022/05/14 11:45:39;;;;;;;4.70;0.93;;;;;;;;;;5006783;28;20108;-82
2022/05/14 11:48:06;;;;;;;3.70;0.90;;;;;;;;;;4996643;28;20152;-84
2022/05/14 11:50:41;;;;;;;3.22;1.20;;;;;;;;;;5016278;28;20068;-81
2022/05/14 11:53:29;;;;;;;5.65;1.40;;;;;;;;;;5015759;28;20045;-84
2022/05/14 11:56:02;;;;;;;7.07;1.63;;;;;;;;;;5010355;28;20100;-83
2022/05/14 11:58:35;;;;;;;7.03;1.70;;;;;;;;;;5015500;28;20128;-82
2022/05/14 12:01:12;;;;;;;4.03;1.10;;;;;;;;;;4999062;28;20045;-81
2022/05/14 12:03:43;;;;;;;4.53;1.27;;;;;;;;;;5015505;28;20378;-83
2022/05/14 12:06:40;;;;;;;5.40;1.50;;;;;;;;;;5015292;28;20414;-83
2022/05/14 12:09:21;;;;;;;6.72;1.55;;;;;;;;;;5015392;28;20136;-84
2022/05/14 12:11:56;;;;;;;4.10;1.52;;;;;;;;;;4998272;28;20057;-85
2022/05/14 12:14:31;;;;;;;4.80;1.00;;;;;;;;;;4999423;28;20128;-86
2022/05/14 12:17:00;;;;;;;4.35;0.90;;;;;;;;;;5016105;28;20033;-89
2022/05/14 12:19:29;;;;;;;3.92;1.08;;;;;;;;;;5014919;28;20053;-82
2022/05/14 12:21:59;;;;;;;4.82;1.40;;;;;;;;;;5014386;28;21028;-82
2022/05/14 12:24:28;;;;;;;2.13;0.93;;;;;;;;;;5031104;28;20045;-82
2022/05/14 12:26:56;;;;;;;4.88;1.38;;;;;;;;;;5015117;28;20136;-79
2022/05/14 12:29:26;;;;;;;4.10;1.40;;;;;;;;;;4997822;28;21050;-80
2022/05/14 12:34:58;;;;;;;4.55;1.13;;;;;;;;;;4995035;28;20050;-82
2022/05/14 12:37:33;;;;;;;3.45;0.77;;;;;;;;;;4998755;28;20145;-79
2022/05/14 12:40:00;;;;;;;4.22;0.88;;;;;;;;;;5014822;28;20049;-85
2022/05/14 12:42:36;;;;;;;4.75;1.10;;;;;;;;;;4997957;28;20045;-80
2022/05/14 12:45:04;;;;;;;3.78;1.13;;;;;;;;;;5013623;28;20490;-80
2022/05/14 12:47:32;;;;;;;4.38;1.20;;;;;;;;;;4997569;28;20159;-80
2022/05/14 12:50:01;;;;;;;3.60;0.70;;;;;;;;;;5014168;28;20383;-79
2022/05/14 12:52:32;;;;;;;4.82;1.00;;;;;;;;;;5021265;28;20399;-79
2022/05/14 12:55:09;;;;;;;3.67;0.80;;;;;;;;;;5032047;28;20033;-81
2022/05/14 12:57:38;;;;;;;5.72;1.17;;;;;;;;;;5029929;28;20331;-79
2022/05/14 13:00:06;;;;;;;3.13;0.90;;;;;;;;;;5029898;28;20498;-79
2022/05/14 13:02:41;;;;;;;3.95;1.10;;;;;;;;;;4995621;28;20534;-88
2022/05/14 13:05:14;;;;;;;2.72;0.90;;;;;;;;;;4993247;28;20067;-86
2022/05/14 13:07:52;;;;;;;4.45;0.70;;;;;;;;;;4998473;28;20099;-85
2022/05/14 13:10:25;;;;;;;3.88;0.80;;;;;;;;;;5028917;28;20045;-89
2022/05/14 13:12:54;;;;;;;5.05;1.13;;;;;;;;;;4994159;28;20045;-85
2022/05/14 13:15:31;;;;;;;3.05;0.75;;;;;;;;;;4997585;28;20043;-80
2022/05/14 13:17:58;;;;;;;4.13;0.98;;;;;;;;;;5029262;28;20478;-79
2022/05/14 13:20:33;;;;;;;3.28;0.60;;;;;;;;;;4999737;28;20053;-78
2022/05/14 13:23:04;;;;;;;3.08;0.90;;;;;;;;;;5013259;28;20053;-80
2022/05/14 13:25:34;;;;;;;2.63;0.82;;;;;;;;;;5036302;28;20520;-88
2022/05/14 13:28:18;;;;;;;3.83;0.90;;;;;;;;;;5016450;28;20045;-83
2022/05/14 13:30:47;;;;;;;4.80;0.90;;;;;;;;;;5022038;28;20495;-87
2022/05/14 13:33:33;;;;;;;3.28;0.80;;;;;;;;;;4999699;28;20042;-83
2022/05/14 13:39:02;;;;;;;5.72;1.02;;;;;;;;;;5009684;28;20052;-87
2022/05/14 13:41:29;;;;;;;;;;;;;;;;;;5003165;28;20053;-85
2022/05/14 13:43:59;;;;;;;3.75;0.73;;;;;;;;;;5048411;28;20285;-81
2022/05/14 13:46:31;;;;;;;5.55;0.80;;;;;;;;;;5034094;28;20050;-81
2022/05/14 13:48:59;;;;;;;6.03;1.17;;;;;;;;;;5017442;28;20430;-79
2022/05/14 13:51:29;;;;;;;3.60;1.05;;;;;;;;;;5017166;28;20042;-79
2022/05/14 13:54:08;;;;;;;3.05;0.80;;;;;;;;;;5033484;28;20072;-79
2022/05/14 13:56:35;;;;;;;4.35;1.02;;;;;;;;;;5007712;28;20124;-78
2022/05/14 13:59:30;;;;;;;2.72;0.70;;;;;;;;;;5014588;28;20046;-79
2022/05/14 14:02:07;;;;;;;5.70;0.70;;;;;;;;;;5001231;28;20136;-80
2022/05/14 14:04:35;;;;;;;5.20;1.00;;;;;;;;;;5013482;28;20048;-80
2022/05/14 14:07:04;;;;;;;3.30;0.80;;;;;;;;;;5000993;28;20046;-79
2022/05/14 14:09:32;;;;;;;4.72;1.05;;;;;;;;;;5016943;28;20468;-79
2022/05/14 14:12:00;;;;;;;6.28;1.10;;;;;;;;;;5033808;28;20580;-79
2022/05/14 14:14:27;;;;;;;6.45;1.13;;;;;;;;;;5050736;28;20061;-79
2022/05/14 14:16:54;;;;;;;3.92;1.10;;;;;;;;;;5016696;28;20041;-79
2022/05/14 14:19:23;;;;;;;4.32;1.10;;;;;;;;;;5013405;28;20049;-79
2022/05/14 14:21:51;;;;;;;3.63;0.80;;;;;;;;;;5030029;28;20048;-80
2022/05/14 14:24:21;;;;;;;3.38;0.90;;;;;;;;;;5020305;28;20506;-79
2022/05/14 14:26:50;;;;;;;6.35;1.15;;;;;;;;;;5034927;28;20045;-80
2022/05/14 14:29:19;;;;;;;5.93;1.23;;;;;;;;;;5029653;28;20053;-78
2022/05/14 14:31:47;;;;;;;2.90;0.95;;;;;;;;;;5013199;28;20073;-79
2022/05/14 14:34:17;;;;;;;2.75;0.88;;;;;;;;;;5026033;28;20045;-80
2022/05/14 14:36:44;;;;;;;2.92;0.70;;;;;;;;;;5021797;28;20041;-79
2022/05/14 14:39:12;;;;;;;3.60;1.17;;;;;;;;;;5042901;28;20046;-80
2022/05/14 14:41:39;;;;;;;4.00;0.63;;;;;;;;;;4996492;28;20099;-80
2022/05/14 14:44:07;;;;;;;3.95;0.80;;;;;;;;;;4996434;28;20095;-80
2022/05/14 14:46:41;;;;;;;5.13;1.00;;;;;;;;;;4999587;28;20076;-81
2022/05/14 14:49:12;;;;;;;4.05;0.93;;;;;;;;;;5016965;28;20049;-82
2022/05/14 14:51:40;;;;;;;5.13;1.13;;;;;;;;;;5017087;28;20037;-78
2022/05/14 14:54:07;;;;;;;3.58;0.95;;;;;;;;;;5033236;28;20280;-80
2022/05/14 14:56:35;;;;;;;3.08;1.08;;;;;;;;;;5010872;28;20042;-80
2022/05/14 14:59:02;;;;;;;3.97;0.75;;;;;;;;;;5013223;28;20133;-80
2022/05/14 15:02:28;;;;;;;2.78;0.95;;;35.50;30.60;;;;;;4991926;27;4430496;-79
2022/05/14 15:04:57;;;;;;;3.92;0.77;;;35.20;31.00;;;;;;5127106;28;20507;-79
2022/05/14 15:07:25;;;;;;;1.92;0.60;;;35.20;31.20;;;;;;5113687;28;20107;-80
2022/05/14 15:09:56;;;;;;;5.90;0.80;;;35.10;31.30;;;;;;5101711;28;20162;-81
2022/05/14 15:12:24;;;;;;;3.38;0.70;;;34.90;31.50;;;;;;5128421;28;20035;-80
2022/05/14 15:14:51;;;;;;;2.88;0.68;;;34.80;30.90;;;;;;5112218;28;20051;-77
2022/05/14 15:17:18;;;;;;;2.80;0.80;;;34.30;31.10;;;;;;5118157;28;20050;-75
2022/05/14 15:19:46;;;;;;;2.30;0.60;;;34.10;31.40;;;;;;5126391;27;20044;-76
2022/05/14 15:22:13;;;;;;;4.88;1.00;;;34.40;31.10;;;;;;5108907;28;20069;-76
2022/05/14 15:24:40;;;;;;;5.28;1.05;;;34.10;30.30;;;;;;5089494;28;20070;-76
2022/05/14 15:27:07;;;;;;;2.95;0.80;;;33.60;30.50;;;;;;5102467;28;20116;-76